Los Fuertes, Colorado
Current Conditions -  °F | °C
As of 6:30 AM on Saturday 25 Oct 2014 (Local Time) from KVTP Reporting Station
Clear Clear  
Wind Chill: 41°   Ceiling: Unl
Heat Index: 45°   Visibility: 10mi
Dew Point: 21°   Wind: 6mph
Humidity: 39%   Direction: 180°S
Pressure: 30.52"   Gusts: NA
Location:  37.1568°N, 105.289°W
Report Text: KVTP 251230Z AUTO 18005KT 10SM CLR 07/M06 A3052 RMK AO2
Loading
Personal Weather Stations






























Interactive Weather Map
Tropical Storm Tracking
New forecast layout! Learn more

10-Day Weather Forecast

Advertisements
Track Severe Weather on mobile